createdAt,value
2022-09-28T00:00:23.803Z,2.00
2022-09-28T00:03:21.544Z,2.00
2022-09-28T00:06:24.416Z,2.20
2022-09-28T00:09:21.109Z,3.20
2022-09-28T00:12:18.634Z,3.00
2022-09-28T00:15:16.543Z,3.20
2022-09-28T00:18:13.023Z,2.00
2022-09-28T00:21:12.898Z,2.40
2022-09-28T00:24:17.437Z,4.20
2022-09-28T00:27:14.267Z,5.00
2022-09-28T00:30:11.242Z,5.00
2022-09-28T00:33:08.433Z,5.00
2022-09-28T00:36:05.475Z,3.00
2022-09-28T00:39:06.868Z,3.80
2022-09-28T00:42:13.438Z,1.80
2022-09-28T00:45:10.440Z,2.00
2022-09-28T00:48:07.532Z,3.20
2022-09-28T00:51:07.221Z,4.20
2022-09-28T00:54:04.683Z,5.00
2022-09-28T00:57:01.263Z,2.00
2022-09-28T00:59:59.191Z,5.20
2022-09-28T01:02:56.432Z,5.00
2022-09-28T01:05:53.188Z,3.00
2022-09-28T01:08:51.635Z,5.00
2022-09-28T01:11:49.241Z,4.20
2022-09-28T01:14:46.166Z,2.20
2022-09-28T01:18:02.709Z,3.80
2022-09-28T01:21:22.976Z,6.00
2022-09-28T01:24:40.346Z,5.00
2022-09-28T01:27:41.350Z,5.20
2022-09-28T01:31:04.843Z,6.80
2022-09-28T01:34:14.817Z,4.00
2022-09-28T01:37:13.479Z,7.20
2022-09-28T01:40:10.621Z,5.60
2022-09-28T01:43:12.286Z,5.80
2022-09-28T01:46:25.807Z,7.80
2022-09-28T01:49:28.509Z,9.00
2022-09-28T01:52:37.275Z,6.80
2022-09-28T01:55:35.377Z,9.00
2022-09-28T01:58:34.392Z,8.20
2022-09-28T02:01:40.138Z,8.80
2022-09-28T02:04:50.104Z,6.60
2022-09-28T02:08:03.422Z,7.00
2022-09-28T02:11:11.611Z,7.00
2022-09-28T02:14:10.610Z,7.40
2022-09-28T02:17:08.791Z,7.40
2022-09-28T02:20:07.482Z,6.00
2022-09-28T02:23:04.169Z,7.60
2022-09-28T02:26:03.198Z,7.20
2022-09-28T02:29:00.692Z,6.00
2022-09-28T02:31:57.235Z,7.60
2022-09-28T02:34:55.380Z,6.00
2022-09-28T02:37:52.768Z,7.80
2022-09-28T02:41:21.831Z,6.00
2022-09-28T02:44:53.358Z,6.60
2022-09-28T02:47:53.567Z,4.80
2022-09-28T02:51:01.941Z,8.20
2022-09-28T02:54:15.430Z,6.60
2022-09-28T02:57:57.572Z,5.60
2022-09-28T03:01:13.696Z,3.80
2022-09-28T03:04:19.968Z,6.60
2022-09-28T03:07:33.924Z,4.80
2022-09-28T03:10:36.174Z,5.00
2022-09-28T03:13:34.532Z,4.60
2022-09-28T03:16:32.431Z,5.80
2022-09-28T03:19:33.290Z,2.00
2022-09-28T03:22:30.148Z,4.60
2022-09-28T03:25:27.894Z,5.80
2022-09-28T03:28:25.924Z,6.00
2022-09-28T03:31:23.738Z,5.20
2022-09-28T03:34:20.252Z,5.40
2022-09-28T03:37:17.696Z,1.00
2022-09-28T03:40:14.647Z,5.00
2022-09-28T03:43:12.654Z,5.60
2022-09-28T03:46:10.587Z,6.00
2022-09-28T03:49:12.672Z,6.00
2022-09-28T03:52:09.739Z,2.40
2022-09-28T03:55:07.666Z,5.00
2022-09-28T03:58:04.407Z,5.00
2022-09-28T04:01:05.842Z,3.00
2022-09-28T04:04:03.326Z,3.00
2022-09-28T04:07:01.463Z,4.20
2022-09-28T04:09:58.278Z,5.00
2022-09-28T04:12:58.818Z,3.00
2022-09-28T04:15:56.180Z,3.00
2022-09-28T04:18:53.612Z,5.00
2022-09-28T04:22:03.405Z,5.00
2022-09-28T04:25:00.350Z,6.00
2022-09-28T04:28:15.755Z,6.00
2022-09-28T04:31:16.234Z,5.00
2022-09-28T04:34:19.702Z,5.00
2022-09-28T04:37:16.640Z,5.00
2022-09-28T04:40:14.608Z,5.40
2022-09-28T04:43:11.629Z,6.00
2022-09-28T04:46:09.743Z,4.60
2022-09-28T04:49:13.720Z,4.60
2022-09-28T04:52:18.868Z,5.00
2022-09-28T04:55:20.664Z,6.00
2022-09-28T04:58:17.454Z,6.60
2022-09-28T05:01:16.135Z,5.80
2022-09-28T05:04:39.778Z,6.60
2022-09-28T05:07:46.032Z,2.00
2022-09-28T05:10:43.702Z,6.00
2022-09-28T05:13:45.446Z,5.60
2022-09-28T05:16:44.844Z,5.00
2022-09-28T05:19:57.443Z,5.00
2022-09-28T05:22:54.673Z,6.00
2022-09-28T05:25:52.739Z,7.00
2022-09-28T05:28:55.707Z,2.40
2022-09-28T05:31:52.812Z,5.40
2022-09-28T05:35:16.811Z,5.40
2022-09-28T05:38:16.474Z,6.00
2022-09-28T05:41:13.678Z,7.00
2022-09-28T05:44:10.747Z,4.60
2022-09-28T05:47:07.672Z,5.00
2022-09-28T05:50:05.915Z,5.80
2022-09-28T05:53:08.364Z,6.00
2022-09-28T05:56:06.703Z,4.60
2022-09-28T05:59:06.542Z,5.80
2022-09-28T06:02:03.942Z,6.40
2022-09-28T06:05:01.774Z,7.00
2022-09-28T06:07:59.666Z,6.00
2022-09-28T06:11:00.242Z,5.00
2022-09-28T06:13:57.624Z,6.80
2022-09-28T06:16:57.920Z,6.00
2022-09-28T06:19:55.902Z,6.60
2022-09-28T06:22:56.415Z,6.00
2022-09-28T06:25:53.351Z,6.20
2022-09-28T06:28:50.616Z,5.00
2022-09-28T06:31:47.539Z,6.00
2022-09-28T06:34:44.209Z,7.00
2022-09-28T06:37:44.875Z,5.80
2022-09-28T06:40:42.804Z,6.40
2022-09-28T06:43:39.788Z,6.00
2022-09-28T06:46:42.861Z,7.00
2022-09-28T06:49:40.714Z,7.00
2022-09-28T06:52:57.895Z,5.40
2022-09-28T06:56:10.414Z,5.80
2022-09-28T06:59:07.669Z,7.00
2022-09-28T07:02:07.404Z,7.00
2022-09-28T07:05:26.833Z,7.60
2022-09-28T07:09:17.656Z,6.80
2022-09-28T07:12:39.960Z,7.40
2022-09-28T07:15:56.865Z,7.00
2022-09-28T07:18:54.008Z,7.00
2022-09-28T07:22:03.009Z,7.00
2022-09-28T07:25:00.749Z,6.00
2022-09-28T07:28:17.395Z,4.80
2022-09-28T07:31:40.072Z,6.00
2022-09-28T07:35:08.008Z,6.00
2022-09-28T07:38:15.583Z,7.00
2022-09-28T07:41:14.123Z,8.20
2022-09-28T07:44:18.994Z,7.20
2022-09-28T07:47:29.662Z,5.60
2022-09-28T07:51:00.175Z,7.00
2022-09-28T07:54:03.938Z,5.00
2022-09-28T07:57:18.541Z,5.00
2022-09-28T08:00:21.274Z,7.20
2022-09-28T08:03:24.130Z,6.40
2022-09-28T08:06:23.371Z,3.40
2022-09-28T08:09:20.329Z,5.80
2022-09-28T08:12:40.773Z,6.60
2022-09-28T08:16:02.278Z,6.60
2022-09-28T08:19:07.583Z,5.80
2022-09-28T08:22:04.425Z,5.40
2022-09-28T08:25:01.966Z,5.00
2022-09-28T08:28:00.819Z,6.00
2022-09-28T08:31:01.433Z,5.00
2022-09-28T08:34:18.967Z,6.00
2022-09-28T08:37:34.844Z,5.20
2022-09-28T08:41:45.286Z,6.00
2022-09-28T08:45:07.261Z,6.00
2022-09-28T08:48:40.459Z,3.00
2022-09-28T08:52:00.844Z,5.00
2022-09-28T08:55:33.031Z,5.20
2022-09-28T08:58:33.601Z,4.60
2022-09-28T09:01:34.790Z,5.60
2022-09-28T09:04:34.676Z,5.00
2022-09-28T09:08:05.801Z,6.00
2022-09-28T09:11:44.464Z,5.00
2022-09-28T09:14:47.873Z,5.40
2022-09-28T09:18:24.016Z,5.00
2022-09-28T09:21:53.064Z,5.00
2022-09-28T09:24:51.924Z,6.00
2022-09-28T09:28:27.621Z,5.80
2022-09-28T09:31:48.056Z,6.00
2022-09-28T09:35:21.838Z,5.40
2022-09-28T09:39:32.264Z,6.00
2022-09-28T09:43:19.727Z,8.00
2022-09-28T09:46:43.355Z,6.00
2022-09-28T09:50:15.489Z,5.20
2022-09-28T09:53:59.881Z,3.20
2022-09-28T09:57:13.905Z,4.60
2022-09-28T10:00:27.758Z,5.40
2022-09-28T10:03:39.151Z,5.00
2022-09-28T10:06:42.716Z,5.00
2022-09-28T10:09:43.019Z,3.40
2022-09-28T10:12:57.460Z,5.00
2022-09-28T10:15:55.524Z,5.40
2022-09-28T10:18:56.602Z,2.00
2022-09-28T10:22:18.256Z,6.60
2022-09-28T10:25:16.035Z,5.60
2022-09-28T10:28:17.988Z,5.80
2022-09-28T10:31:54.178Z,3.40
2022-09-28T10:35:19.667Z,6.00
2022-09-28T10:38:34.020Z,5.00
2022-09-28T10:41:49.145Z,5.00
2022-09-28T10:44:53.281Z,3.00
2022-09-28T10:48:12.828Z,5.00
2022-09-28T10:51:09.645Z,2.00
2022-09-28T10:54:16.933Z,5.40
2022-09-28T10:57:34.659Z,5.20
2022-09-28T11:00:40.165Z,4.20
2022-09-28T11:03:56.439Z,4.20
2022-09-28T11:09:59.001Z,5.00
2022-09-28T11:12:57.223Z,2.80
2022-09-28T11:15:56.998Z,2.20
2022-09-28T11:19:24.388Z,6.00
2022-09-28T11:22:23.980Z,6.00
2022-09-28T11:25:26.054Z,5.60
2022-09-28T11:28:24.868Z,3.00
2022-09-28T11:31:28.260Z,5.00
2022-09-28T11:34:58.247Z,2.00
2022-09-28T11:38:27.610Z,5.00
2022-09-28T11:42:05.935Z,2.00
2022-09-28T11:45:24.983Z,5.00
2022-09-28T11:48:25.692Z,6.00
2022-09-28T11:51:28.113Z,5.00
2022-09-28T11:54:38.535Z,12.00
2022-09-28T11:57:38.096Z,14.00
2022-09-28T12:00:38.384Z,7.75
2022-09-28T12:03:43.966Z,5.00
2022-09-28T12:06:46.880Z,9.00
2022-09-28T12:10:10.404Z,7.00
2022-09-28T12:13:20.237Z,9.50
2022-09-28T12:16:53.517Z,6.00
2022-09-28T12:19:59.439Z,3.00
2022-09-28T12:23:00.026Z,5.75
2022-09-28T12:26:02.308Z,2.00
2022-09-28T12:29:02.053Z,5.00
2022-09-28T12:32:02.791Z,11.75
2022-09-28T12:35:00.060Z,12.25
2022-09-28T12:38:02.310Z,11.25
2022-09-28T12:41:16.701Z,18.00
2022-09-28T12:44:29.413Z,20.00
2022-09-28T12:47:39.185Z,20.00
2022-09-28T12:51:04.725Z,19.33
2022-09-28T12:54:25.044Z,12.00
2022-09-28T12:57:43.010Z,8.00
2022-09-28T13:01:18.554Z,13.67
2022-09-28T13:04:40.441Z,20.33
2022-09-28T13:07:54.097Z,22.00
2022-09-28T13:11:31.991Z,20.33
2022-09-28T13:14:54.447Z,17.25
2022-09-28T13:18:01.767Z,13.00
2022-09-28T13:21:06.428Z,20.50
2022-09-28T13:24:27.990Z,30.33
2022-09-28T13:27:30.321Z,26.00
2022-09-28T13:30:28.297Z,31.67
2022-09-28T13:33:36.842Z,27.00
2022-09-28T13:36:34.630Z,31.75
2022-09-28T13:39:36.579Z,33.67
2022-09-28T13:42:40.739Z,31.67
2022-09-28T13:45:45.652Z,36.67
2022-09-28T13:48:48.621Z,32.33
2022-09-28T13:52:07.558Z,27.75
2022-09-28T13:55:14.063Z,33.67
2022-09-28T13:58:27.780Z,30.67
2022-09-28T14:01:39.922Z,28.75
2022-09-28T14:04:52.445Z,33.67
2022-09-28T14:08:20.809Z,25.33
2022-09-28T14:11:36.583Z,35.00
2022-09-28T14:15:03.280Z,27.33
2022-09-28T14:18:23.482Z,28.33
2022-09-28T14:21:45.412Z,26.50
2022-09-28T14:24:55.526Z,27.75
2022-09-28T14:28:30.968Z,24.75
2022-09-28T14:31:28.495Z,28.25
2022-09-28T14:34:34.364Z,27.50
2022-09-28T14:37:51.873Z,28.00
2022-09-28T14:41:09.855Z,29.25
2022-09-28T14:44:08.411Z,26.25
2022-09-28T14:47:25.094Z,27.00
2022-09-28T14:50:28.300Z,28.75
2022-09-28T14:53:24.921Z,29.00
2022-09-28T14:56:21.870Z,26.00
2022-09-28T14:59:36.154Z,31.50
2022-09-28T15:02:33.220Z,28.00
2022-09-28T15:05:32.837Z,34.00
2022-09-28T15:08:37.543Z,31.00
2022-09-28T15:11:34.889Z,30.50
2022-09-28T15:14:35.566Z,30.00
2022-09-28T15:17:40.074Z,32.00
2022-09-28T15:20:38.032Z,28.75
2022-09-28T15:23:43.146Z,31.25
2022-09-28T15:26:40.171Z,31.00
2022-09-28T15:29:37.224Z,28.50
2022-09-28T15:32:34.135Z,28.00
2022-09-28T15:35:30.986Z,24.75
2022-09-28T15:38:28.072Z,27.75
2022-09-28T15:41:24.910Z,22.50
2022-09-28T15:44:33.078Z,25.00
2022-09-28T15:47:33.005Z,27.50
2022-09-28T15:50:30.101Z,26.75
2022-09-28T15:53:26.838Z,22.00
2022-09-28T15:56:23.819Z,27.25
2022-09-28T15:59:39.749Z,29.75
2022-09-28T16:02:37.250Z,29.25
2022-09-28T16:05:48.998Z,30.75
2022-09-28T16:08:46.284Z,31.25
2022-09-28T16:11:43.115Z,31.25
2022-09-28T16:14:40.044Z,35.00
2022-09-28T16:17:38.038Z,32.00
2022-09-28T16:20:37.384Z,34.50
2022-09-28T16:23:35.746Z,36.25
2022-09-28T16:26:40.165Z,33.75
2022-09-28T16:29:41.682Z,33.67
2022-09-28T16:32:50.609Z,32.00
2022-09-28T16:36:05.888Z,24.75
2022-09-28T16:39:02.867Z,29.50
2022-09-28T16:42:01.849Z,27.00
2022-09-28T16:44:59.443Z,24.75
2022-09-28T16:47:57.510Z,24.33
2022-09-28T16:50:55.351Z,21.33
2022-09-28T16:54:10.849Z,18.33
2022-09-28T16:57:10.026Z,18.25
2022-09-28T17:00:10.948Z,21.75
2022-09-28T17:03:15.473Z,22.50
2022-09-28T17:06:13.383Z,16.33
2022-09-28T17:09:12.633Z,18.00
2022-09-28T17:12:18.098Z,17.00
2022-09-28T17:15:15.770Z,16.75
2022-09-28T17:18:13.945Z,13.25
2022-09-28T17:21:19.347Z,16.00
2022-09-28T17:24:17.876Z,13.00
2022-09-28T17:27:16.907Z,13.75
2022-09-28T17:30:14.798Z,13.25
2022-09-28T17:33:13.160Z,12.00
2022-09-28T17:36:12.554Z,10.25
2022-09-28T17:39:12.454Z,8.00
2022-09-28T17:42:09.968Z,12.25
2022-09-28T17:45:08.624Z,12.50
2022-09-28T17:48:11.297Z,12.25
2022-09-28T17:51:08.435Z,12.00
2022-09-28T17:54:06.888Z,16.75
2022-09-28T17:57:03.871Z,11.50
2022-09-28T18:00:01.700Z,8.25
2022-09-28T18:03:01.469Z,9.25
2022-09-28T18:06:04.314Z,9.25
2022-09-28T18:09:03.093Z,8.50
2022-09-28T18:12:04.231Z,6.50
2022-09-28T18:15:01.293Z,8.75
2022-09-28T18:17:58.271Z,3.00
2022-09-28T18:20:55.280Z,11.50
2022-09-28T18:23:52.227Z,6.75
2022-09-28T18:26:49.092Z,6.00
2022-09-28T18:29:46.392Z,5.75
2022-09-28T18:32:43.071Z,6.50
2022-09-28T18:35:40.076Z,5.75
2022-09-28T18:38:37.856Z,6.00
2022-09-28T18:41:35.095Z,9.75
2022-09-28T18:44:32.469Z,6.00
2022-09-28T18:47:29.292Z,4.50
2022-09-28T18:50:26.316Z,6.50
2022-09-28T18:53:23.917Z,7.75
2022-09-28T18:56:21.308Z,6.00
2022-09-28T18:59:18.084Z,6.50
2022-09-28T19:02:15.724Z,7.00
2022-09-28T19:05:13.417Z,6.50
2022-09-28T19:08:10.398Z,6.75
2022-09-28T19:11:12.423Z,5.50
2022-09-28T19:14:11.141Z,8.00
2022-09-28T19:17:08.740Z,6.75
2022-09-28T19:20:06.912Z,7.00
2022-09-28T19:23:04.674Z,6.75
2022-09-28T19:26:12.894Z,6.25
2022-09-28T19:29:10.523Z,7.25
2022-09-28T19:32:08.537Z,6.75
2022-09-28T19:35:06.512Z,7.25
2022-09-28T19:38:04.527Z,7.00
2022-09-28T19:41:02.816Z,9.50
2022-09-28T19:44:02.722Z,8.00
2022-09-28T19:47:07.379Z,10.50
2022-09-28T19:50:05.305Z,9.00
2022-09-28T19:53:02.173Z,11.00
2022-09-28T19:56:00.125Z,10.25
2022-09-28T19:58:57.628Z,11.75
2022-09-28T20:01:56.388Z,7.50
2022-09-28T20:04:53.148Z,13.50
2022-09-28T20:07:50.473Z,13.50
2022-09-28T20:10:52.456Z,14.00
2022-09-28T20:13:49.712Z,17.50
2022-09-28T20:16:47.327Z,17.25
2022-09-28T20:19:44.423Z,26.33
2022-09-28T20:22:43.772Z,17.33
2022-09-28T20:25:41.357Z,16.67
2022-09-28T20:28:38.757Z,15.50
2022-09-28T20:31:37.108Z,17.33
2022-09-28T20:34:34.266Z,18.50
2022-09-28T20:37:33.042Z,21.33
2022-09-28T20:40:30.208Z,16.50
2022-09-28T20:43:29.928Z,20.25
2022-09-28T20:46:27.505Z,18.00
2022-09-28T20:49:24.499Z,19.67
2022-09-28T20:52:21.417Z,27.00
2022-09-28T20:55:18.134Z,19.25
2022-09-28T20:58:15.278Z,11.75
2022-09-28T21:01:17.189Z,22.50
2022-09-28T21:04:14.575Z,10.75
2022-09-28T21:07:11.295Z,10.50
2022-09-28T21:10:09.350Z,10.75
2022-09-28T21:13:06.190Z,9.75
2022-09-28T21:16:03.773Z,7.00
2022-09-28T21:19:01.351Z,7.00
2022-09-28T21:21:58.165Z,9.00
2022-09-28T21:24:55.247Z,7.00
2022-09-28T21:27:52.405Z,10.75
2022-09-28T21:30:50.002Z,6.50
2022-09-28T21:33:47.597Z,7.00
2022-09-28T21:36:44.247Z,10.00
2022-09-28T21:39:41.357Z,13.00
2022-09-28T21:42:38.561Z,5.25
2022-09-28T21:45:36.300Z,9.00
2022-09-28T21:48:33.195Z,9.00
2022-09-28T21:51:30.605Z,9.33
2022-09-28T21:54:29.178Z,8.33
2022-09-28T21:57:26.483Z,7.50
2022-09-28T22:00:23.589Z,6.00
2022-09-28T22:03:20.790Z,6.00
2022-09-28T22:06:19.210Z,9.00
2022-09-28T22:09:16.302Z,8.00
2022-09-28T22:12:14.199Z,10.50
2022-09-28T22:15:11.544Z,10.25
2022-09-28T22:18:08.829Z,11.00
2022-09-28T22:21:14.726Z,9.50
2022-09-28T22:24:12.299Z,11.25
2022-09-28T22:27:09.361Z,28.00
2022-09-28T22:30:06.957Z,22.00
2022-09-28T22:33:04.408Z,9.50
2022-09-28T22:36:01.471Z,11.75
2022-09-28T22:38:58.622Z,7.75
2022-09-28T22:41:55.577Z,13.50
2022-09-28T22:44:52.758Z,11.50
2022-09-28T22:47:50.615Z,11.50
2022-09-28T22:50:51.451Z,7.25
2022-09-28T22:53:48.555Z,12.00
2022-09-28T22:56:45.243Z,7.00
2022-09-28T22:59:42.615Z,16.25
2022-09-28T23:02:39.754Z,11.25
2022-09-28T23:05:37.758Z,7.00
2022-09-28T23:08:35.369Z,9.25
2022-09-28T23:11:32.218Z,11.75
2022-09-28T23:14:29.805Z,8.25
2022-09-28T23:17:27.622Z,13.25
2022-09-28T23:20:24.314Z,12.25
2022-09-28T23:23:21.635Z,15.50
2022-09-28T23:26:20.588Z,10.25
2022-09-28T23:29:17.406Z,13.50
2022-09-28T23:32:15.184Z,11.50
2022-09-28T23:35:13.250Z,7.67
2022-09-28T23:38:13.678Z,9.50
2022-09-28T23:41:10.666Z,10.50
2022-09-28T23:44:07.336Z,7.25
2022-09-28T23:47:04.579Z,5.00
2022-09-28T23:50:02.309Z,9.00
2022-09-28T23:52:59.330Z,7.25
2022-09-28T23:55:56.343Z,6.25
2022-09-28T23:58:53.712Z,6.75
